sensor_id;sensor_type;location;lat;lon;timestamp;P1;durP1;ratioP1;P2;durP2;ratioP2
17796;SDS011;55596;53.554;9.916;2023-11-21T00:00:34;62.40;;;25.03;;
17796;SDS011;55596;53.554;9.916;2023-11-21T00:03:02;61.17;;;22.63;;
17796;SDS011;55596;53.554;9.916;2023-11-21T00:05:30;55.40;;;22.33;;
17796;SDS011;55596;53.554;9.916;2023-11-21T00:07:57;52.67;;;22.23;;
17796;SDS011;55596;53.554;9.916;2023-11-21T00:10:24;60.73;;;23.60;;
17796;SDS011;55596;53.554;9.916;2023-11-21T00:12:51;43.47;;;19.03;;
17796;SDS011;55596;53.554;9.916;2023-11-21T00:15:20;39.67;;;18.23;;
17796;SDS011;55596;53.554;9.916;2023-11-21T00:17:47;33.60;;;17.23;;
17796;SDS011;55596;53.554;9.916;2023-11-21T00:20:16;32.73;;;17.07;;
17796;SDS011;55596;53.554;9.916;2023-11-21T00:22:43;34.83;;;18.10;;
17796;SDS011;55596;53.554;9.916;2023-11-21T00:25:10;37.67;;;19.17;;
17796;SDS011;55596;53.554;9.916;2023-11-21T00:27:40;34.10;;;18.03;;
17796;SDS011;55596;53.554;9.916;2023-11-21T00:30:07;29.97;;;17.63;;
17796;SDS011;55596;53.554;9.916;2023-11-21T00:32:35;34.07;;;18.47;;
17796;SDS011;55596;53.554;9.916;2023-11-21T00:35:02;30.60;;;17.00;;
17796;SDS011;55596;53.554;9.916;2023-11-21T00:37:32;30.27;;;17.17;;
17796;SDS011;55596;53.554;9.916;2023-11-21T00:39:59;27.53;;;17.10;;
17796;SDS011;55596;53.554;9.916;2023-11-21T00:42:30;32.37;;;17.70;;
17796;SDS011;55596;53.554;9.916;2023-11-21T00:44:58;29.93;;;17.10;;
17796;SDS011;55596;53.554;9.916;2023-11-21T00:47:26;32.43;;;18.10;;
17796;SDS011;55596;53.554;9.916;2023-11-21T00:49:53;28.40;;;16.17;;
17796;SDS011;55596;53.554;9.916;2023-11-21T00:52:20;26.63;;;16.67;;
17796;SDS011;55596;53.554;9.916;2023-11-21T00:54:49;28.77;;;16.70;;
17796;SDS011;55596;53.554;9.916;2023-11-21T00:57:16;32.60;;;17.60;;
17796;SDS011;55596;53.554;9.916;2023-11-21T00:59:43;30.93;;;19.77;;
17796;SDS011;55596;53.554;9.916;2023-11-21T01:02:11;30.20;;;19.00;;
17796;SDS011;55596;53.554;9.916;2023-11-21T01:04:38;34.80;;;19.23;;
17796;SDS011;55596;53.554;9.916;2023-11-21T01:07:05;34.70;;;18.97;;
17796;SDS011;55596;53.554;9.916;2023-11-21T01:09:32;39.37;;;20.90;;
17796;SDS011;55596;53.554;9.916;2023-11-21T01:12:00;37.90;;;21.07;;
17796;SDS011;55596;53.554;9.916;2023-11-21T01:14:28;40.27;;;22.77;;
17796;SDS011;55596;53.554;9.916;2023-11-21T01:16:55;38.33;;;21.67;;
17796;SDS011;55596;53.554;9.916;2023-11-21T01:19:22;41.23;;;21.93;;
17796;SDS011;55596;53.554;9.916;2023-11-21T01:21:49;41.60;;;23.77;;
17796;SDS011;55596;53.554;9.916;2023-11-21T01:24:17;49.87;;;24.00;;
17796;SDS011;55596;53.554;9.916;2023-11-21T01:26:44;45.20;;;23.67;;
17796;SDS011;55596;53.554;9.916;2023-11-21T01:29:13;46.17;;;24.90;;
17796;SDS011;55596;53.554;9.916;2023-11-21T01:31:40;46.63;;;25.13;;
17796;SDS011;55596;53.554;9.916;2023-11-21T01:34:07;45.33;;;24.23;;
17796;SDS011;55596;53.554;9.916;2023-11-21T01:36:34;45.30;;;24.73;;
17796;SDS011;55596;53.554;9.916;2023-11-21T01:39:01;42.60;;;23.57;;
17796;SDS011;55596;53.554;9.916;2023-11-21T01:41:33;43.17;;;23.40;;
17796;SDS011;55596;53.554;9.916;2023-11-21T01:44:00;41.83;;;23.63;;
17796;SDS011;55596;53.554;9.916;2023-11-21T01:46:29;38.27;;;23.47;;
17796;SDS011;55596;53.554;9.916;2023-11-21T01:48:56;37.70;;;22.50;;
17796;SDS011;55596;53.554;9.916;2023-11-21T01:51:24;38.23;;;22.87;;
17796;SDS011;55596;53.554;9.916;2023-11-21T01:53:51;38.63;;;22.37;;
17796;SDS011;55596;53.554;9.916;2023-11-21T01:56:20;34.20;;;21.70;;
17796;SDS011;55596;53.554;9.916;2023-11-21T01:58:48;32.17;;;20.30;;
17796;SDS011;55596;53.554;9.916;2023-11-21T02:01:16;29.17;;;20.00;;
17796;SDS011;55596;53.554;9.916;2023-11-21T02:03:45;27.40;;;19.00;;
17796;SDS011;55596;53.554;9.916;2023-11-21T02:06:12;25.93;;;18.63;;
17796;SDS011;55596;53.554;9.916;2023-11-21T02:08:39;26.27;;;18.13;;
17796;SDS011;55596;53.554;9.916;2023-11-21T02:11:09;28.53;;;19.13;;
17796;SDS011;55596;53.554;9.916;2023-11-21T02:13:37;24.47;;;16.97;;
17796;SDS011;55596;53.554;9.916;2023-11-21T02:16:08;22.50;;;16.27;;
17796;SDS011;55596;53.554;9.916;2023-11-21T02:18:35;22.40;;;15.63;;
17796;SDS011;55596;53.554;9.916;2023-11-21T02:21:05;22.00;;;15.60;;
17796;SDS011;55596;53.554;9.916;2023-11-21T02:23:34;19.87;;;14.63;;
17796;SDS011;55596;53.554;9.916;2023-11-21T02:26:01;19.50;;;13.43;;
17796;SDS011;55596;53.554;9.916;2023-11-21T02:28:29;17.83;;;13.30;;
17796;SDS011;55596;53.554;9.916;2023-11-21T02:30:58;15.33;;;12.13;;
17796;SDS011;55596;53.554;9.916;2023-11-21T02:33:25;14.73;;;11.77;;
17796;SDS011;55596;53.554;9.916;2023-11-21T02:35:52;13.67;;;10.70;;
17796;SDS011;55596;53.554;9.916;2023-11-21T02:38:20;12.23;;;10.20;;
17796;SDS011;55596;53.554;9.916;2023-11-21T02:40:48;11.93;;;10.23;;
17796;SDS011;55596;53.554;9.916;2023-11-21T02:43:16;11.80;;;10.20;;
17796;SDS011;55596;53.554;9.916;2023-11-21T02:45:43;11.63;;;9.80;;
17796;SDS011;55596;53.554;9.916;2023-11-21T02:48:10;12.20;;;9.70;;
17796;SDS011;55596;53.554;9.916;2023-11-21T02:50:37;12.47;;;9.87;;
17796;SDS011;55596;53.554;9.916;2023-11-21T02:53:04;11.10;;;9.90;;
17796;SDS011;55596;53.554;9.916;2023-11-21T02:55:31;11.87;;;9.43;;
17796;SDS011;55596;53.554;9.916;2023-11-21T02:58:01;11.00;;;9.43;;
17796;SDS011;55596;53.554;9.916;2023-11-21T03:00:32;11.77;;;9.27;;
17796;SDS011;55596;53.554;9.916;2023-11-21T03:02:59;10.87;;;9.43;;
17796;SDS011;55596;53.554;9.916;2023-11-21T03:05:26;11.40;;;10.10;;
17796;SDS011;55596;53.554;9.916;2023-11-21T03:07:54;11.93;;;9.87;;
17796;SDS011;55596;53.554;9.916;2023-11-21T03:10:21;13.17;;;10.60;;
17796;SDS011;55596;53.554;9.916;2023-11-21T03:12:48;12.23;;;9.33;;
17796;SDS011;55596;53.554;9.916;2023-11-21T03:15:17;11.80;;;9.87;;
17796;SDS011;55596;53.554;9.916;2023-11-21T03:17:44;11.30;;;9.37;;
17796;SDS011;55596;53.554;9.916;2023-11-21T03:20:11;13.63;;;10.20;;
17796;SDS011;55596;53.554;9.916;2023-11-21T03:22:39;11.33;;;9.93;;
17796;SDS011;55596;53.554;9.916;2023-11-21T03:25:06;12.37;;;9.47;;
17796;SDS011;55596;53.554;9.916;2023-11-21T03:27:35;11.53;;;10.00;;
17796;SDS011;55596;53.554;9.916;2023-11-21T03:30:04;11.27;;;9.17;;
17796;SDS011;55596;53.554;9.916;2023-11-21T03:32:33;10.40;;;9.03;;
17796;SDS011;55596;53.554;9.916;2023-11-21T03:35:00;13.33;;;9.17;;
17796;SDS011;55596;53.554;9.916;2023-11-21T03:37:28;11.70;;;9.70;;
17796;SDS011;55596;53.554;9.916;2023-11-21T03:39:56;10.63;;;9.13;;
17796;SDS011;55596;53.554;9.916;2023-11-21T03:42:25;13.33;;;10.03;;
17796;SDS011;55596;53.554;9.916;2023-11-21T03:44:52;11.73;;;9.10;;
17796;SDS011;55596;53.554;9.916;2023-11-21T03:47:19;12.17;;;9.70;;
17796;SDS011;55596;53.554;9.916;2023-11-21T03:49:48;12.80;;;9.10;;
17796;SDS011;55596;53.554;9.916;2023-11-21T03:52:14;11.80;;;9.90;;
17796;SDS011;55596;53.554;9.916;2023-11-21T03:54:41;11.63;;;8.63;;
17796;SDS011;55596;53.554;9.916;2023-11-21T03:57:09;11.27;;;10.07;;
17796;SDS011;55596;53.554;9.916;2023-11-21T03:59:36;11.40;;;9.37;;
17796;SDS011;55596;53.554;9.916;2023-11-21T04:02:03;12.87;;;10.03;;
17796;SDS011;55596;53.554;9.916;2023-11-21T04:04:30;10.17;;;9.10;;
17796;SDS011;55596;53.554;9.916;2023-11-21T04:06:59;10.40;;;9.27;;
17796;SDS011;55596;53.554;9.916;2023-11-21T04:09:26;12.03;;;9.73;;
17796;SDS011;55596;53.554;9.916;2023-11-21T04:11:53;11.63;;;9.77;;
17796;SDS011;55596;53.554;9.916;2023-11-21T04:14:20;10.40;;;9.17;;
17796;SDS011;55596;53.554;9.916;2023-11-21T04:16:48;11.10;;;9.90;;
17796;SDS011;55596;53.554;9.916;2023-11-21T04:19:15;10.43;;;9.33;;
17796;SDS011;55596;53.554;9.916;2023-11-21T04:21:42;11.03;;;9.17;;
17796;SDS011;55596;53.554;9.916;2023-11-21T04:24:11;10.80;;;8.70;;
17796;SDS011;55596;53.554;9.916;2023-11-21T04:26:38;11.07;;;9.33;;
17796;SDS011;55596;53.554;9.916;2023-11-21T04:29:05;12.67;;;9.63;;
17796;SDS011;55596;53.554;9.916;2023-11-21T04:31:32;14.30;;;9.67;;
17796;SDS011;55596;53.554;9.916;2023-11-21T04:33:59;12.33;;;9.97;;
17796;SDS011;55596;53.554;9.916;2023-11-21T04:36:27;13.70;;;9.73;;
17796;SDS011;55596;53.554;9.916;2023-11-21T04:38:55;11.73;;;10.03;;
17796;SDS011;55596;53.554;9.916;2023-11-21T04:41:24;12.63;;;9.80;;
17796;SDS011;55596;53.554;9.916;2023-11-21T04:43:51;12.80;;;10.00;;
17796;SDS011;55596;53.554;9.916;2023-11-21T04:46:18;13.20;;;10.03;;
17796;SDS011;55596;53.554;9.916;2023-11-21T04:48:45;12.57;;;10.43;;
17796;SDS011;55596;53.554;9.916;2023-11-21T04:51:12;15.80;;;9.90;;
17796;SDS011;55596;53.554;9.916;2023-11-21T04:53:39;13.80;;;9.80;;
17796;SDS011;55596;53.554;9.916;2023-11-21T04:56:07;10.80;;;9.63;;
17796;SDS011;55596;53.554;9.916;2023-11-21T04:58:35;11.63;;;9.33;;
17796;SDS011;55596;53.554;9.916;2023-11-21T05:01:03;10.17;;;9.17;;
17796;SDS011;55596;53.554;9.916;2023-11-21T05:03:30;12.07;;;8.97;;
17796;SDS011;55596;53.554;9.916;2023-11-21T05:05:57;11.27;;;9.43;;
17796;SDS011;55596;53.554;9.916;2023-11-21T05:08:26;11.27;;;9.17;;
17796;SDS011;55596;53.554;9.916;2023-11-21T05:10:53;10.80;;;9.07;;
17796;SDS011;55596;53.554;9.916;2023-11-21T05:13:20;13.30;;;9.70;;
17796;SDS011;55596;53.554;9.916;2023-11-21T05:15:53;10.60;;;8.90;;
17796;SDS011;55596;53.554;9.916;2023-11-21T05:18:21;11.27;;;9.77;;
17796;SDS011;55596;53.554;9.916;2023-11-21T05:20:48;12.33;;;9.90;;
17796;SDS011;55596;53.554;9.916;2023-11-21T05:23:15;11.03;;;9.40;;
17796;SDS011;55596;53.554;9.916;2023-11-21T05:25:42;12.00;;;9.80;;
17796;SDS011;55596;53.554;9.916;2023-11-21T05:28:11;12.00;;;9.60;;
17796;SDS011;55596;53.554;9.916;2023-11-21T05:30:38;11.07;;;9.83;;
17796;SDS011;55596;53.554;9.916;2023-11-21T05:33:07;10.73;;;8.97;;
17796;SDS011;55596;53.554;9.916;2023-11-21T05:35:34;11.17;;;9.07;;
17796;SDS011;55596;53.554;9.916;2023-11-21T05:38:01;12.37;;;10.20;;
17796;SDS011;55596;53.554;9.916;2023-11-21T05:40:30;9.70;;;8.70;;
17796;SDS011;55596;53.554;9.916;2023-11-21T05:42:58;10.63;;;9.50;;
17796;SDS011;55596;53.554;9.916;2023-11-21T05:45:25;11.57;;;9.63;;
17796;SDS011;55596;53.554;9.916;2023-11-21T05:47:54;13.20;;;9.50;;
17796;SDS011;55596;53.554;9.916;2023-11-21T05:50:22;11.47;;;9.13;;
17796;SDS011;55596;53.554;9.916;2023-11-21T05:52:49;11.70;;;8.87;;
17796;SDS011;55596;53.554;9.916;2023-11-21T05:55:16;11.20;;;9.37;;
17796;SDS011;55596;53.554;9.916;2023-11-21T05:57:46;10.33;;;8.97;;
17796;SDS011;55596;53.554;9.916;2023-11-21T06:00:14;11.40;;;9.33;;
17796;SDS011;55596;53.554;9.916;2023-11-21T06:02:45;10.73;;;9.30;;
17796;SDS011;55596;53.554;9.916;2023-11-21T06:05:12;11.63;;;9.60;;
17796;SDS011;55596;53.554;9.916;2023-11-21T06:07:41;11.37;;;9.03;;
17796;SDS011;55596;53.554;9.916;2023-11-21T06:10:08;9.57;;;8.50;;
17796;SDS011;55596;53.554;9.916;2023-11-21T06:12:36;11.77;;;9.50;;
17796;SDS011;55596;53.554;9.916;2023-11-21T06:15:03;10.90;;;8.33;;
17796;SDS011;55596;53.554;9.916;2023-11-21T06:17:33;10.17;;;8.77;;
17796;SDS011;55596;53.554;9.916;2023-11-21T06:20:01;10.03;;;8.10;;
17796;SDS011;55596;53.554;9.916;2023-11-21T06:22:34;10.57;;;8.37;;
17796;SDS011;55596;53.554;9.916;2023-11-21T06:25:02;10.77;;;8.60;;
17796;SDS011;55596;53.554;9.916;2023-11-21T06:27:31;10.60;;;8.67;;
17796;SDS011;55596;53.554;9.916;2023-11-21T06:29:58;11.77;;;9.07;;
17796;SDS011;55596;53.554;9.916;2023-11-21T06:32:25;11.63;;;8.70;;
17796;SDS011;55596;53.554;9.916;2023-11-21T06:34:53;11.70;;;8.97;;
17796;SDS011;55596;53.554;9.916;2023-11-21T06:37:24;11.67;;;8.00;;
17796;SDS011;55596;53.554;9.916;2023-11-21T06:39:51;10.47;;;9.37;;
17796;SDS011;55596;53.554;9.916;2023-11-21T06:42:20;10.77;;;8.63;;
17796;SDS011;55596;53.554;9.916;2023-11-21T06:44:47;10.50;;;8.43;;
17796;SDS011;55596;53.554;9.916;2023-11-21T06:47:16;9.80;;;8.77;;
17796;SDS011;55596;53.554;9.916;2023-11-21T06:49:45;11.80;;;9.07;;
17796;SDS011;55596;53.554;9.916;2023-11-21T06:52:13;11.17;;;9.10;;
17796;SDS011;55596;53.554;9.916;2023-11-21T06:54:40;9.47;;;8.57;;
17796;SDS011;55596;53.554;9.916;2023-11-21T06:57:07;9.60;;;8.60;;
17796;SDS011;55596;53.554;9.916;2023-11-21T06:59:36;12.37;;;9.27;;
17796;SDS011;55596;53.554;9.916;2023-11-21T07:02:03;9.80;;;8.67;;
17796;SDS011;55596;53.554;9.916;2023-11-21T07:04:31;12.33;;;9.00;;
17796;SDS011;55596;53.554;9.916;2023-11-21T07:06:58;13.43;;;8.77;;
17796;SDS011;55596;53.554;9.916;2023-11-21T07:09:26;11.30;;;9.17;;
17796;SDS011;55596;53.554;9.916;2023-11-21T07:11:53;12.70;;;8.27;;
17796;SDS011;55596;53.554;9.916;2023-11-21T07:14:20;9.60;;;8.47;;
17796;SDS011;55596;53.554;9.916;2023-11-21T07:16:49;11.83;;;8.83;;
17796;SDS011;55596;53.554;9.916;2023-11-21T07:19:17;10.30;;;8.30;;
17796;SDS011;55596;53.554;9.916;2023-11-21T07:21:44;8.77;;;7.70;;
17796;SDS011;55596;53.554;9.916;2023-11-21T07:24:12;10.57;;;7.83;;
17796;SDS011;55596;53.554;9.916;2023-11-21T07:26:39;8.53;;;7.63;;
17796;SDS011;55596;53.554;9.916;2023-11-21T07:29:06;11.63;;;8.10;;
17796;SDS011;55596;53.554;9.916;2023-11-21T07:31:33;9.97;;;7.80;;
17796;SDS011;55596;53.554;9.916;2023-11-21T07:34:02;10.63;;;8.07;;
17796;SDS011;55596;53.554;9.916;2023-11-21T07:36:29;9.50;;;7.67;;
17796;SDS011;55596;53.554;9.916;2023-11-21T07:38:56;11.03;;;7.70;;
17796;SDS011;55596;53.554;9.916;2023-11-21T07:41:23;9.97;;;7.70;;
17796;SDS011;55596;53.554;9.916;2023-11-21T07:43:50;8.30;;;7.40;;
17796;SDS011;55596;53.554;9.916;2023-11-21T07:46:18;9.10;;;7.67;;
17796;SDS011;55596;53.554;9.916;2023-11-21T07:48:46;9.90;;;7.87;;
17796;SDS011;55596;53.554;9.916;2023-11-21T07:51:14;10.23;;;7.87;;
17796;SDS011;55596;53.554;9.916;2023-11-21T07:53:41;10.50;;;8.50;;
17796;SDS011;55596;53.554;9.916;2023-11-21T07:56:09;13.30;;;8.27;;
17796;SDS011;55596;53.554;9.916;2023-11-21T07:58:36;8.73;;;7.83;;
17796;SDS011;55596;53.554;9.916;2023-11-21T08:01:03;11.90;;;8.17;;
17796;SDS011;55596;53.554;9.916;2023-11-21T08:03:31;13.57;;;7.60;;
17796;SDS011;55596;53.554;9.916;2023-11-21T08:05:59;11.33;;;8.37;;
17796;SDS011;55596;53.554;9.916;2023-11-21T08:08:29;9.37;;;7.47;;
17796;SDS011;55596;53.554;9.916;2023-11-21T08:10:57;7.67;;;6.50;;
17796;SDS011;55596;53.554;9.916;2023-11-21T08:13:27;9.63;;;7.37;;
17796;SDS011;55596;53.554;9.916;2023-11-21T08:15:55;10.20;;;6.70;;
17796;SDS011;55596;53.554;9.916;2023-11-21T08:18:26;8.70;;;6.77;;
17796;SDS011;55596;53.554;9.916;2023-11-21T08:20:54;6.50;;;5.57;;
17796;SDS011;55596;53.554;9.916;2023-11-21T08:23:21;7.63;;;5.47;;
17796;SDS011;55596;53.554;9.916;2023-11-21T08:25:52;6.07;;;5.20;;
17796;SDS011;55596;53.554;9.916;2023-11-21T08:28:19;7.90;;;5.63;;
17796;SDS011;55596;53.554;9.916;2023-11-21T08:30:48;7.80;;;5.37;;
17796;SDS011;55596;53.554;9.916;2023-11-21T08:33:15;7.17;;;5.07;;
17796;SDS011;55596;53.554;9.916;2023-11-21T08:35:45;5.20;;;4.63;;
17796;SDS011;55596;53.554;9.916;2023-11-21T08:38:12;6.27;;;5.17;;
17796;SDS011;55596;53.554;9.916;2023-11-21T08:40:40;6.27;;;4.90;;
17796;SDS011;55596;53.554;9.916;2023-11-21T08:43:08;6.03;;;5.03;;
17796;SDS011;55596;53.554;9.916;2023-11-21T08:45:37;8.63;;;5.13;;
17796;SDS011;55596;53.554;9.916;2023-11-21T08:48:04;5.43;;;4.70;;
17796;SDS011;55596;53.554;9.916;2023-11-21T08:50:31;5.93;;;4.77;;
17796;SDS011;55596;53.554;9.916;2023-11-21T08:52:59;5.67;;;4.60;;
17796;SDS011;55596;53.554;9.916;2023-11-21T08:55:26;5.50;;;4.40;;
17796;SDS011;55596;53.554;9.916;2023-11-21T08:57:53;4.37;;;3.87;;
17796;SDS011;55596;53.554;9.916;2023-11-21T09:00:22;6.00;;;4.30;;
17796;SDS011;55596;53.554;9.916;2023-11-21T09:02:49;7.23;;;4.43;;
17796;SDS011;55596;53.554;9.916;2023-11-21T09:05:16;5.53;;;4.30;;
17796;SDS011;55596;53.554;9.916;2023-11-21T09:07:45;4.87;;;4.00;;
17796;SDS011;55596;53.554;9.916;2023-11-21T09:10:13;8.07;;;4.33;;
17796;SDS011;55596;53.554;9.916;2023-11-21T09:12:41;5.40;;;3.90;;
17796;SDS011;55596;53.554;9.916;2023-11-21T09:15:09;7.13;;;3.83;;
17796;SDS011;55596;53.554;9.916;2023-11-21T09:17:38;5.47;;;4.17;;
17796;SDS011;55596;53.554;9.916;2023-11-21T09:20:06;5.93;;;4.60;;
17796;SDS011;55596;53.554;9.916;2023-11-21T09:22:35;8.60;;;5.67;;
17796;SDS011;55596;53.554;9.916;2023-11-21T09:25:02;5.87;;;4.97;;
17796;SDS011;55596;53.554;9.916;2023-11-21T09:27:30;6.77;;;5.80;;
17796;SDS011;55596;53.554;9.916;2023-11-21T09:29:57;6.47;;;5.60;;
17796;SDS011;55596;53.554;9.916;2023-11-21T09:32:25;8.37;;;5.97;;
17796;SDS011;55596;53.554;9.916;2023-11-21T09:34:53;7.67;;;5.43;;
17796;SDS011;55596;53.554;9.916;2023-11-21T09:37:23;12.93;;;4.83;;
17796;SDS011;55596;53.554;9.916;2023-11-21T09:39:52;9.13;;;4.90;;
17796;SDS011;55596;53.554;9.916;2023-11-21T09:42:22;5.77;;;4.20;;
17796;SDS011;55596;53.554;9.916;2023-11-21T09:44:51;5.50;;;4.30;;
17796;SDS011;55596;53.554;9.916;2023-11-21T09:47:21;5.23;;;4.00;;
17796;SDS011;55596;53.554;9.916;2023-11-21T09:49:49;4.30;;;3.90;;
17796;SDS011;55596;53.554;9.916;2023-11-21T09:52:20;7.53;;;3.90;;
17796;SDS011;55596;53.554;9.916;2023-11-21T09:54:50;5.33;;;3.77;;
17796;SDS011;55596;53.554;9.916;2023-11-21T09:57:18;4.67;;;3.20;;
17796;SDS011;55596;53.554;9.916;2023-11-21T09:59:47;4.43;;;3.20;;
17796;SDS011;55596;53.554;9.916;2023-11-21T10:02:17;7.30;;;3.20;;
17796;SDS011;55596;53.554;9.916;2023-11-21T10:04:46;4.33;;;3.17;;
17796;SDS011;55596;53.554;9.916;2023-11-21T10:07:13;4.77;;;3.10;;
17796;SDS011;55596;53.554;9.916;2023-11-21T10:09:44;4.47;;;2.80;;
17796;SDS011;55596;53.554;9.916;2023-11-21T10:12:13;4.80;;;3.20;;
17796;SDS011;55596;53.554;9.916;2023-11-21T10:14:42;3.60;;;3.00;;
17796;SDS011;55596;53.554;9.916;2023-11-21T10:17:10;5.47;;;2.90;;
17796;SDS011;55596;53.554;9.916;2023-11-21T10:19:38;3.93;;;3.00;;
17796;SDS011;55596;53.554;9.916;2023-11-21T10:22:06;4.80;;;2.83;;
17796;SDS011;55596;53.554;9.916;2023-11-21T10:24:34;3.53;;;2.60;;
17796;SDS011;55596;53.554;9.916;2023-11-21T10:27:03;4.93;;;2.80;;
17796;SDS011;55596;53.554;9.916;2023-11-21T10:29:30;3.87;;;2.57;;
17796;SDS011;55596;53.554;9.916;2023-11-21T10:32:01;3.87;;;2.67;;
17796;SDS011;55596;53.554;9.916;2023-11-21T10:34:28;3.00;;;2.50;;
17796;SDS011;55596;53.554;9.916;2023-11-21T10:36:55;6.10;;;3.43;;
17796;SDS011;55596;53.554;9.916;2023-11-21T10:39:23;2.93;;;2.67;;
17796;SDS011;55596;53.554;9.916;2023-11-21T10:41:54;5.37;;;3.00;;
17796;SDS011;55596;53.554;9.916;2023-11-21T10:44:23;3.87;;;2.87;;
17796;SDS011;55596;53.554;9.916;2023-11-21T10:46:51;3.40;;;2.70;;
17796;SDS011;55596;53.554;9.916;2023-11-21T10:49:21;3.77;;;3.00;;
17796;SDS011;55596;53.554;9.916;2023-11-21T10:51:49;3.80;;;2.57;;
17796;SDS011;55596;53.554;9.916;2023-11-21T10:54:21;4.30;;;2.70;;
17796;SDS011;55596;53.554;9.916;2023-11-21T10:56:48;3.37;;;2.67;;
17796;SDS011;55596;53.554;9.916;2023-11-21T10:59:17;3.67;;;2.70;;
17796;SDS011;55596;53.554;9.916;2023-11-21T11:01:47;5.10;;;2.33;;
17796;SDS011;55596;53.554;9.916;2023-11-21T11:04:18;3.63;;;2.50;;
17796;SDS011;55596;53.554;9.916;2023-11-21T11:06:48;4.83;;;2.70;;
17796;SDS011;55596;53.554;9.916;2023-11-21T11:09:17;4.13;;;2.57;;
17796;SDS011;55596;53.554;9.916;2023-11-21T11:11:45;4.73;;;2.80;;
17796;SDS011;55596;53.554;9.916;2023-11-21T11:14:13;2.97;;;2.30;;
17796;SDS011;55596;53.554;9.916;2023-11-21T11:16:41;2.80;;;2.40;;
17796;SDS011;55596;53.554;9.916;2023-11-21T11:19:11;3.60;;;2.60;;
17796;SDS011;55596;53.554;9.916;2023-11-21T11:21:43;6.87;;;2.47;;
17796;SDS011;55596;53.554;9.916;2023-11-21T11:24:22;4.97;;;2.90;;
17796;SDS011;55596;53.554;9.916;2023-11-21T11:26:56;3.27;;;2.50;;
17796;SDS011;55596;53.554;9.916;2023-11-21T11:29:28;5.80;;;2.70;;
17796;SDS011;55596;53.554;9.916;2023-11-21T11:32:00;4.93;;;2.67;;
17796;SDS011;55596;53.554;9.916;2023-11-21T11:34:33;3.47;;;2.60;;
17796;SDS011;55596;53.554;9.916;2023-11-21T11:37:03;4.40;;;2.47;;
17796;SDS011;55596;53.554;9.916;2023-11-21T11:39:30;4.10;;;2.60;;
17796;SDS011;55596;53.554;9.916;2023-11-21T11:41:58;4.23;;;2.60;;
17796;SDS011;55596;53.554;9.916;2023-11-21T11:47:13;3.70;;;2.47;;
17796;SDS011;55596;53.554;9.916;2023-11-21T11:49:48;4.57;;;2.23;;
17796;SDS011;55596;53.554;9.916;2023-11-21T11:52:31;4.33;;;2.27;;
17796;SDS011;55596;53.554;9.916;2023-11-21T11:54:59;5.43;;;2.57;;
17796;SDS011;55596;53.554;9.916;2023-11-21T11:57:26;2.70;;;2.13;;
17796;SDS011;55596;53.554;9.916;2023-11-21T12:00:09;4.33;;;2.30;;
17796;SDS011;55596;53.554;9.916;2023-11-21T12:02:36;3.10;;;2.40;;
17796;SDS011;55596;53.554;9.916;2023-11-21T12:05:08;3.30;;;2.50;;
17796;SDS011;55596;53.554;9.916;2023-11-21T12:07:41;5.87;;;2.53;;
17796;SDS011;55596;53.554;9.916;2023-11-21T12:10:10;4.43;;;2.73;;
17796;SDS011;55596;53.554;9.916;2023-11-21T12:12:41;4.10;;;2.77;;
17796;SDS011;55596;53.554;9.916;2023-11-21T12:15:09;3.73;;;2.60;;
17796;SDS011;55596;53.554;9.916;2023-11-21T12:17:37;3.53;;;2.40;;
17796;SDS011;55596;53.554;9.916;2023-11-21T12:20:05;3.83;;;2.43;;
17796;SDS011;55596;53.554;9.916;2023-11-21T12:22:41;3.03;;;2.50;;
17796;SDS011;55596;53.554;9.916;2023-11-21T12:25:08;5.07;;;2.60;;
17796;SDS011;55596;53.554;9.916;2023-11-21T12:27:41;4.00;;;2.30;;
17796;SDS011;55596;53.554;9.916;2023-11-21T12:30:08;3.00;;;2.57;;
17796;SDS011;55596;53.554;9.916;2023-11-21T12:32:38;6.13;;;2.43;;
17796;SDS011;55596;53.554;9.916;2023-11-21T12:35:06;4.57;;;2.83;;
17796;SDS011;55596;53.554;9.916;2023-11-21T12:37:34;3.47;;;2.50;;
17796;SDS011;55596;53.554;9.916;2023-11-21T12:40:03;4.57;;;2.80;;
17796;SDS011;55596;53.554;9.916;2023-11-21T12:42:31;5.20;;;3.13;;
17796;SDS011;55596;53.554;9.916;2023-11-21T12:45:06;4.73;;;2.90;;
17796;SDS011;55596;53.554;9.916;2023-11-21T12:47:34;5.43;;;2.90;;
17796;SDS011;55596;53.554;9.916;2023-11-21T12:50:02;3.57;;;2.90;;
17796;SDS011;55596;53.554;9.916;2023-11-21T12:52:31;4.90;;;2.93;;
17796;SDS011;55596;53.554;9.916;2023-11-21T12:54:58;6.93;;;3.10;;
17796;SDS011;55596;53.554;9.916;2023-11-21T12:57:27;4.33;;;3.20;;
17796;SDS011;55596;53.554;9.916;2023-11-21T12:59:56;5.57;;;3.00;;
17796;SDS011;55596;53.554;9.916;2023-11-21T13:02:25;5.93;;;3.20;;
17796;SDS011;55596;53.554;9.916;2023-11-21T13:05:03;4.13;;;2.87;;
17796;SDS011;55596;53.554;9.916;2023-11-21T13:07:40;5.47;;;3.30;;
17796;SDS011;55596;53.554;9.916;2023-11-21T13:10:11;3.27;;;2.87;;
17796;SDS011;55596;53.554;9.916;2023-11-21T13:12:43;3.57;;;2.67;;
17796;SDS011;55596;53.554;9.916;2023-11-21T13:15:13;4.07;;;2.20;;
17796;SDS011;55596;53.554;9.916;2023-11-21T13:17:41;5.57;;;2.30;;
17796;SDS011;55596;53.554;9.916;2023-11-21T13:20:09;4.00;;;2.90;;
17796;SDS011;55596;53.554;9.916;2023-11-21T13:22:44;3.73;;;2.67;;
17796;SDS011;55596;53.554;9.916;2023-11-21T13:25:11;3.30;;;2.43;;
17796;SDS011;55596;53.554;9.916;2023-11-21T13:27:39;4.03;;;2.63;;
17796;SDS011;55596;53.554;9.916;2023-11-21T13:30:10;8.07;;;2.73;;
17796;SDS011;55596;53.554;9.916;2023-11-21T13:32:40;3.70;;;2.60;;
17796;SDS011;55596;53.554;9.916;2023-11-21T13:35:07;5.83;;;2.43;;
17796;SDS011;55596;53.554;9.916;2023-11-21T13:37:40;4.20;;;2.60;;
17796;SDS011;55596;53.554;9.916;2023-11-21T13:40:10;6.50;;;2.90;;
17796;SDS011;55596;53.554;9.916;2023-11-21T13:42:39;3.33;;;2.83;;
17796;SDS011;55596;53.554;9.916;2023-11-21T13:45:10;5.03;;;3.07;;
17796;SDS011;55596;53.554;9.916;2023-11-21T13:47:37;3.87;;;2.77;;
17796;SDS011;55596;53.554;9.916;2023-11-21T13:50:05;6.97;;;2.50;;
17796;SDS011;55596;53.554;9.916;2023-11-21T13:52:42;5.00;;;2.80;;
17796;SDS011;55596;53.554;9.916;2023-11-21T13:55:10;3.33;;;2.70;;
17796;SDS011;55596;53.554;9.916;2023-11-21T13:57:40;6.37;;;2.97;;
17796;SDS011;55596;53.554;9.916;2023-11-21T14:00:12;3.43;;;2.30;;
17796;SDS011;55596;53.554;9.916;2023-11-21T14:02:59;3.80;;;2.50;;
17796;SDS011;55596;53.554;9.916;2023-11-21T14:05:27;5.37;;;2.23;;
17796;SDS011;55596;53.554;9.916;2023-11-21T14:07:56;3.53;;;2.50;;
17796;SDS011;55596;53.554;9.916;2023-11-21T14:10:28;4.97;;;2.60;;
17796;SDS011;55596;53.554;9.916;2023-11-21T14:13:02;3.70;;;2.40;;
17796;SDS011;55596;53.554;9.916;2023-11-21T14:15:32;5.77;;;2.80;;
17796;SDS011;55596;53.554;9.916;2023-11-21T14:18:03;3.00;;;2.30;;
17796;SDS011;55596;53.554;9.916;2023-11-21T14:20:32;5.00;;;2.63;;
17796;SDS011;55596;53.554;9.916;2023-11-21T14:23:01;3.90;;;2.80;;
17796;SDS011;55596;53.554;9.916;2023-11-21T14:25:28;5.77;;;2.83;;
17796;SDS011;55596;53.554;9.916;2023-11-21T14:27:55;5.10;;;2.93;;
17796;SDS011;55596;53.554;9.916;2023-11-21T14:30:22;4.60;;;3.10;;
17796;SDS011;55596;53.554;9.916;2023-11-21T14:32:52;4.87;;;3.37;;
17796;SDS011;55596;53.554;9.916;2023-11-21T14:35:19;4.83;;;3.37;;
17796;SDS011;55596;53.554;9.916;2023-11-21T14:37:46;6.63;;;3.90;;
17796;SDS011;55596;53.554;9.916;2023-11-21T14:40:14;6.00;;;3.10;;
17796;SDS011;55596;53.554;9.916;2023-11-21T14:42:43;4.80;;;2.77;;
17796;SDS011;55596;53.554;9.916;2023-11-21T14:45:12;3.77;;;3.07;;
17796;SDS011;55596;53.554;9.916;2023-11-21T14:47:45;4.73;;;2.80;;